createdAt,value
2023-04-21T00:01:56.373Z,7.80
2023-04-21T00:04:25.045Z,8.00
2023-04-21T00:06:54.651Z,7.68
2023-04-21T00:09:23.050Z,8.45
2023-04-21T00:11:51.259Z,8.52
2023-04-21T00:14:19.428Z,7.85
2023-04-21T00:16:52.484Z,8.18
2023-04-21T00:19:23.849Z,8.05
2023-04-21T00:21:52.015Z,7.97
2023-04-21T00:24:20.151Z,8.73
2023-04-21T00:26:48.251Z,8.50
2023-04-21T00:29:16.655Z,9.30
2023-04-21T00:31:45.082Z,8.35
2023-04-21T00:34:13.302Z,7.80
2023-04-21T00:36:42.854Z,8.30
2023-04-21T00:39:11.115Z,8.30
2023-04-21T00:41:40.064Z,7.65
2023-04-21T00:44:09.540Z,7.93
2023-04-21T00:46:38.604Z,7.57
2023-04-21T00:49:08.636Z,7.83
2023-04-21T00:51:38.485Z,8.10
2023-04-21T00:54:08.977Z,8.07
2023-04-21T00:56:37.617Z,8.02
2023-04-21T00:59:05.993Z,7.03
2023-04-21T01:01:36.566Z,8.40
2023-04-21T01:04:06.148Z,7.60
2023-04-21T01:06:35.202Z,7.73
2023-04-21T01:09:04.767Z,7.55
2023-04-21T01:11:34.515Z,7.40
2023-04-21T01:14:02.672Z,8.23
2023-04-21T01:16:32.818Z,7.60
2023-04-21T01:19:01.872Z,7.47
2023-04-21T01:21:32.084Z,7.80
2023-04-21T01:24:01.603Z,7.00
2023-04-21T01:26:29.764Z,7.45
2023-04-21T01:28:58.453Z,8.10
2023-04-21T01:31:27.395Z,7.90
2023-04-21T01:33:55.639Z,7.50
2023-04-21T01:36:23.882Z,7.43
2023-04-21T01:38:52.092Z,6.63
2023-04-21T01:41:21.666Z,7.17
2023-04-21T01:43:49.904Z,8.37
2023-04-21T01:46:20.932Z,7.33
2023-04-21T01:48:49.130Z,7.90
2023-04-21T01:51:17.301Z,7.30
2023-04-21T01:53:45.465Z,7.22
2023-04-21T01:56:15.495Z,7.50
2023-04-21T01:58:45.034Z,6.88
2023-04-21T02:01:13.248Z,7.37
2023-04-21T02:03:41.956Z,7.40
2023-04-21T02:06:10.494Z,7.10
2023-04-21T02:08:38.698Z,7.77
2023-04-21T02:11:06.902Z,7.90
2023-04-21T02:13:35.054Z,7.40
2023-04-21T02:16:13.548Z,7.10
2023-04-21T02:18:42.506Z,7.20
2023-04-21T02:21:10.695Z,7.20
2023-04-21T02:23:38.849Z,7.67
2023-04-21T02:26:07.277Z,7.10
2023-04-21T02:28:35.474Z,7.47
2023-04-21T02:31:05.136Z,7.07
2023-04-21T02:33:33.313Z,7.50
2023-04-21T02:36:01.461Z,7.20
2023-04-21T02:38:30.329Z,7.47
2023-04-21T02:40:58.592Z,7.33
2023-04-21T02:43:26.793Z,7.07
2023-04-21T02:45:55.096Z,7.13
2023-04-21T02:48:24.652Z,7.10
2023-04-21T02:50:53.761Z,7.87
2023-04-21T02:53:22.055Z,6.87
2023-04-21T02:55:50.207Z,7.03
2023-04-21T02:58:18.452Z,7.17
2023-04-21T03:00:46.707Z,6.93
2023-04-21T03:03:16.968Z,6.80
2023-04-21T03:05:46.724Z,6.73
2023-04-21T03:08:14.925Z,6.80
2023-04-21T03:10:43.272Z,6.80
2023-04-21T03:13:11.414Z,6.57
2023-04-21T03:15:39.633Z,7.07
2023-04-21T03:18:07.873Z,6.30
2023-04-21T03:20:36.166Z,7.00
2023-04-21T03:23:05.751Z,6.80
2023-04-21T03:25:34.022Z,7.10
2023-04-21T03:28:02.333Z,6.70
2023-04-21T03:30:30.621Z,7.13
2023-04-21T03:32:59.513Z,6.50
2023-04-21T03:35:27.875Z,6.73
2023-04-21T03:37:56.043Z,6.30
2023-04-21T03:40:25.825Z,6.43
2023-04-21T03:42:53.988Z,7.10
2023-04-21T03:45:22.766Z,6.60
2023-04-21T03:47:54.753Z,7.43
2023-04-21T03:50:23.499Z,7.00
2023-04-21T03:52:51.655Z,7.20
2023-04-21T03:55:20.080Z,7.37
2023-04-21T03:57:49.647Z,6.90
2023-04-21T04:00:17.956Z,6.63
2023-04-21T04:02:46.340Z,6.47
2023-04-21T04:05:14.885Z,6.80
2023-04-21T04:07:43.081Z,6.40
2023-04-21T04:10:11.584Z,7.03
2023-04-21T04:12:39.760Z,7.10
2023-04-21T04:15:10.218Z,7.03
2023-04-21T04:17:38.443Z,6.90
2023-04-21T04:20:08.410Z,6.33
2023-04-21T04:22:37.029Z,6.83
2023-04-21T04:25:05.524Z,7.60
2023-04-21T04:27:34.358Z,7.07
2023-04-21T04:30:03.280Z,6.93
2023-04-21T04:32:34.125Z,7.07
2023-04-21T04:35:02.556Z,7.37
2023-04-21T04:37:31.790Z,6.40
2023-04-21T04:39:59.975Z,7.10
2023-04-21T04:42:29.050Z,6.40
2023-04-21T04:44:57.587Z,6.60
2023-04-21T04:47:25.874Z,6.30
2023-04-21T04:49:55.474Z,7.13
2023-04-21T04:52:23.669Z,6.47
2023-04-21T04:54:51.811Z,7.37
2023-04-21T04:57:19.947Z,5.73
2023-04-21T04:59:48.132Z,6.07
2023-04-21T05:02:16.459Z,5.93
2023-04-21T05:04:44.842Z,6.57
2023-04-21T05:07:14.558Z,6.77
2023-04-21T05:09:42.774Z,5.90
2023-04-21T05:12:11.281Z,6.03
2023-04-21T05:14:39.427Z,6.17
2023-04-21T05:17:07.708Z,5.57
2023-04-21T05:19:37.451Z,5.75
2023-04-21T05:22:06.576Z,5.10
2023-04-21T05:24:36.459Z,5.43
2023-04-21T05:27:04.756Z,5.37
2023-04-21T05:29:34.260Z,5.50
2023-04-21T05:32:02.611Z,5.40
2023-04-21T05:34:30.820Z,5.40
2023-04-21T05:36:59.033Z,5.47
2023-04-21T05:39:29.087Z,5.80
2023-04-21T05:41:58.952Z,5.50
2023-04-21T05:44:27.117Z,4.80
2023-04-21T05:46:55.360Z,11.07
2023-04-21T05:49:23.553Z,6.27
2023-04-21T05:51:51.686Z,5.80
2023-04-21T05:54:20.184Z,5.30
2023-04-21T05:56:48.619Z,5.45
2023-04-21T05:59:18.198Z,5.72
2023-04-21T06:01:46.368Z,5.70
2023-04-21T06:04:14.820Z,4.90
2023-04-21T06:06:44.358Z,5.72
2023-04-21T06:09:15.669Z,5.32
2023-04-21T06:11:43.864Z,5.55
2023-04-21T06:14:12.045Z,5.55
2023-04-21T06:16:41.620Z,4.93
2023-04-21T06:19:09.881Z,6.03
2023-04-21T06:21:38.079Z,5.93
2023-04-21T06:24:06.679Z,9.02
2023-04-21T06:26:34.821Z,6.35
2023-04-21T06:29:02.996Z,5.47
2023-04-21T06:31:31.170Z,5.20
2023-04-21T06:34:00.784Z,5.32
2023-04-21T06:36:28.949Z,5.35
2023-04-21T06:38:57.161Z,5.18
2023-04-21T06:41:25.521Z,5.88
2023-04-21T06:43:53.798Z,5.47
2023-04-21T06:46:22.065Z,5.05
2023-04-21T06:48:50.326Z,5.07
2023-04-21T06:51:19.964Z,4.78
2023-04-21T06:53:48.138Z,5.00
2023-04-21T06:56:16.318Z,4.95
2023-04-21T06:58:45.886Z,5.05
2023-04-21T07:01:14.175Z,5.53
2023-04-21T07:03:42.414Z,5.00
2023-04-21T07:06:10.939Z,5.15
2023-04-21T07:08:41.264Z,4.78
2023-04-21T07:11:09.545Z,5.20
2023-04-21T07:13:37.791Z,4.90
2023-04-21T07:16:06.490Z,4.90
2023-04-21T07:18:34.782Z,5.00
2023-04-21T07:21:03.042Z,4.47
2023-04-21T07:23:31.242Z,4.65
2023-04-21T07:26:00.903Z,4.78
2023-04-21T07:28:29.101Z,4.53
2023-04-21T07:30:57.309Z,5.22
2023-04-21T07:33:25.628Z,4.43
2023-04-21T07:35:53.772Z,4.68
2023-04-21T07:38:21.942Z,4.22
2023-04-21T07:40:50.104Z,4.45
2023-04-21T07:43:20.156Z,4.95
2023-04-21T07:45:48.385Z,4.05
2023-04-21T07:48:16.651Z,5.53
2023-04-21T07:50:44.965Z,4.03
2023-04-21T07:53:13.358Z,3.88
2023-04-21T07:55:41.730Z,4.25
2023-04-21T07:58:10.480Z,4.15
2023-04-21T08:00:40.110Z,4.13
2023-04-21T08:03:08.633Z,3.50
2023-04-21T08:05:40.987Z,3.67
2023-04-21T08:08:10.569Z,4.32
2023-04-21T08:10:38.814Z,4.03
2023-04-21T08:13:07.097Z,3.60
2023-04-21T08:15:35.792Z,4.13
2023-04-21T08:18:05.801Z,3.20
2023-04-21T08:20:34.426Z,3.35
2023-04-21T08:23:02.719Z,3.13
2023-04-21T08:25:31.075Z,3.53
2023-04-21T08:27:59.356Z,3.33
2023-04-21T08:30:28.461Z,3.33
2023-04-21T08:32:56.732Z,3.15
2023-04-21T08:35:26.373Z,3.10
2023-04-21T08:37:54.644Z,3.60
2023-04-21T08:40:23.959Z,3.05
2023-04-21T08:42:52.212Z,2.90
2023-04-21T08:45:20.716Z,2.80
2023-04-21T08:47:50.562Z,2.70
2023-04-21T08:50:19.174Z,2.70
2023-04-21T08:52:48.801Z,3.25
2023-04-21T08:55:17.633Z,2.55
2023-04-21T08:57:45.933Z,2.67
2023-04-21T09:00:15.179Z,2.47
2023-04-21T09:03:01.345Z,2.47
2023-04-21T09:05:31.917Z,2.90
2023-04-21T09:08:11.533Z,3.10
2023-04-21T09:10:46.365Z,2.72
2023-04-21T09:13:15.051Z,3.50
2023-04-21T09:15:44.474Z,2.90
2023-04-21T09:18:15.387Z,2.72
2023-04-21T09:20:44.475Z,2.90
2023-04-21T09:23:14.231Z,2.97
2023-04-21T09:25:45.330Z,3.05
2023-04-21T09:28:15.510Z,2.88
2023-04-21T09:30:44.554Z,3.60
2023-04-21T09:33:27.863Z,3.70
2023-04-21T09:36:03.345Z,2.70
2023-04-21T09:38:34.323Z,2.90
2023-04-21T09:41:02.650Z,3.03
2023-04-21T09:43:32.009Z,2.42
2023-04-21T09:46:01.573Z,3.17
2023-04-21T09:48:34.684Z,3.22
2023-04-21T09:51:25.471Z,3.13
2023-04-21T09:53:59.535Z,3.40
2023-04-21T09:56:31.243Z,2.78
2023-04-21T09:59:02.767Z,3.15
2023-04-21T10:01:35.548Z,3.10
2023-04-21T10:04:04.531Z,2.58
2023-04-21T10:06:33.611Z,2.85
2023-04-21T10:09:05.358Z,2.30
2023-04-21T10:11:35.181Z,2.72
2023-04-21T10:14:03.953Z,2.78
2023-04-21T10:16:32.152Z,2.58
2023-04-21T10:19:00.507Z,2.58
2023-04-21T10:21:29.632Z,2.45
2023-04-21T10:23:59.256Z,2.70
2023-04-21T10:26:35.920Z,2.67
2023-04-21T10:29:06.923Z,2.50
2023-04-21T10:31:36.219Z,2.60
2023-04-21T10:34:29.975Z,2.38
2023-04-21T10:37:15.542Z,2.67
2023-04-21T10:39:53.283Z,3.33
2023-04-21T10:42:28.518Z,3.15
2023-04-21T10:45:08.450Z,2.70
2023-04-21T10:47:46.147Z,2.75
2023-04-21T10:50:20.402Z,3.25
2023-04-21T10:52:54.923Z,2.50
2023-04-21T10:55:23.975Z,2.53
2023-04-21T10:57:53.652Z,2.83
2023-04-21T11:00:23.860Z,2.42
2023-04-21T11:03:00.161Z,2.80
2023-04-21T11:05:30.572Z,2.92
2023-04-21T11:08:07.006Z,3.00
2023-04-21T11:10:51.034Z,2.67
2023-04-21T11:13:22.526Z,3.03
2023-04-21T11:16:06.643Z,2.42
2023-04-21T11:18:44.634Z,3.00
2023-04-21T11:21:18.164Z,2.50
2023-04-21T11:23:55.016Z,2.85
2023-04-21T11:26:53.769Z,3.08
2023-04-21T11:29:23.958Z,2.88
2023-04-21T11:31:54.088Z,3.00
2023-04-21T11:34:25.086Z,2.92
2023-04-21T11:36:55.535Z,2.85
2023-04-21T11:39:23.792Z,2.80
2023-04-21T11:41:53.450Z,2.67
2023-04-21T11:44:41.879Z,3.03
2023-04-21T11:47:17.266Z,2.95
2023-04-21T11:49:47.207Z,2.70
2023-04-21T11:52:23.365Z,3.72
2023-04-21T11:54:58.010Z,3.17
2023-04-21T11:57:27.490Z,2.80
2023-04-21T12:00:00.620Z,3.15
2023-04-21T12:02:31.022Z,3.28
2023-04-21T12:05:04.380Z,2.70
2023-04-21T12:07:33.540Z,2.83
2023-04-21T12:10:03.034Z,2.92
2023-04-21T12:12:31.822Z,3.45
2023-04-21T12:15:04.506Z,3.25
2023-04-21T12:17:38.443Z,3.42
2023-04-21T12:20:07.872Z,3.58
2023-04-21T12:22:36.130Z,2.75
2023-04-21T12:25:04.387Z,3.28
2023-04-21T12:27:32.627Z,3.50
2023-04-21T12:30:02.222Z,3.17
2023-04-21T12:32:30.937Z,3.33
2023-04-21T12:35:00.621Z,3.53
2023-04-21T12:37:29.181Z,3.15
2023-04-21T12:39:57.382Z,3.50
2023-04-21T12:42:25.784Z,2.72
2023-04-21T12:44:53.993Z,2.97
2023-04-21T12:47:23.665Z,3.40
2023-04-21T12:49:51.862Z,3.45
2023-04-21T12:52:20.051Z,3.03
2023-04-21T12:54:48.200Z,3.10
2023-04-21T12:57:16.879Z,3.35
2023-04-21T12:59:46.456Z,2.90
2023-04-21T13:02:15.021Z,2.70
2023-04-21T13:04:44.738Z,2.90
2023-04-21T13:07:13.013Z,2.83
2023-04-21T13:09:41.413Z,2.90
2023-04-21T13:12:09.756Z,2.58
2023-04-21T13:14:37.941Z,3.03
2023-04-21T13:17:06.206Z,2.50
2023-04-21T13:19:34.988Z,2.50
2023-04-21T13:22:04.739Z,2.38
2023-04-21T13:24:32.980Z,2.83
2023-04-21T13:27:02.514Z,2.60
2023-04-21T13:29:34.047Z,2.60
2023-04-21T13:32:02.379Z,2.63
2023-04-21T13:34:32.098Z,2.40
2023-04-21T13:37:00.859Z,2.42
2023-04-21T13:39:30.712Z,2.92
2023-04-21T13:41:59.140Z,2.50
2023-04-21T13:44:27.381Z,2.83
2023-04-21T13:46:57.397Z,2.38
2023-04-21T13:49:25.879Z,2.50
2023-04-21T13:51:54.064Z,2.60
2023-04-21T13:54:22.705Z,2.75
2023-04-21T13:56:52.957Z,2.90
2023-04-21T13:59:21.217Z,2.78
2023-04-21T14:01:49.578Z,2.40
2023-04-21T14:04:18.213Z,2.67
2023-04-21T14:06:46.526Z,2.42
2023-04-21T14:09:14.959Z,2.75
2023-04-21T14:11:43.139Z,2.45
2023-04-21T14:14:13.842Z,2.53
2023-04-21T14:16:45.316Z,2.92
2023-04-21T14:19:15.512Z,2.50
2023-04-21T14:21:44.133Z,2.60
2023-04-21T14:24:12.456Z,2.72
2023-04-21T14:26:40.719Z,2.80
2023-04-21T14:29:09.158Z,2.38
2023-04-21T14:31:38.829Z,2.60
2023-04-21T14:34:07.572Z,2.88
2023-04-21T14:36:35.787Z,2.58
2023-04-21T14:39:04.741Z,2.30
2023-04-21T14:41:32.901Z,2.20
2023-04-21T14:44:01.101Z,2.50
2023-04-21T14:46:29.444Z,2.30
2023-04-21T14:48:59.299Z,2.50
2023-04-21T14:51:27.762Z,2.60
2023-04-21T14:53:55.962Z,2.83
2023-04-21T14:56:24.219Z,2.42
2023-04-21T14:58:52.360Z,2.45
2023-04-21T15:01:21.277Z,2.58
2023-04-21T15:03:51.025Z,2.65
2023-04-21T15:06:21.110Z,2.78
2023-04-21T15:08:49.285Z,2.80
2023-04-21T15:11:17.517Z,2.30
2023-04-21T15:13:46.014Z,2.35
2023-04-21T15:16:14.961Z,2.78
2023-04-21T15:18:43.154Z,2.42
2023-04-21T15:21:11.927Z,2.28
2023-04-21T15:23:41.580Z,2.75
2023-04-21T15:26:09.824Z,2.75
2023-04-21T15:28:39.611Z,2.42
2023-04-21T15:31:09.912Z,2.58
2023-04-21T15:33:38.372Z,2.15
2023-04-21T15:36:06.811Z,2.63
2023-04-21T15:38:35.044Z,2.63
2023-04-21T15:41:04.697Z,2.40
2023-04-21T15:43:33.141Z,2.45
2023-04-21T15:46:01.380Z,2.92
2023-04-21T15:48:29.701Z,2.35
2023-04-21T15:50:58.010Z,2.67
2023-04-21T15:53:26.324Z,2.60
2023-04-21T15:55:54.545Z,2.58
2023-04-21T15:58:24.148Z,2.75
2023-04-21T16:00:52.412Z,2.88
2023-04-21T16:03:21.742Z,2.42
2023-04-21T16:05:50.375Z,2.63
2023-04-21T16:08:18.849Z,2.20
2023-04-21T16:10:47.105Z,2.78
2023-04-21T16:13:15.439Z,2.92
2023-04-21T16:15:45.158Z,2.75
2023-04-21T16:18:13.461Z,2.78
2023-04-21T16:20:42.736Z,3.95
2023-04-21T16:23:10.894Z,3.08
2023-04-21T16:25:39.574Z,2.78
2023-04-21T16:28:09.193Z,3.00
2023-04-21T16:30:38.675Z,3.00
2023-04-21T16:33:09.363Z,3.13
2023-04-21T16:35:37.730Z,3.80
2023-04-21T16:38:06.112Z,3.85
2023-04-21T16:40:34.680Z,3.67
2023-04-21T16:43:02.954Z,3.10
2023-04-21T16:45:31.383Z,2.65
2023-04-21T16:47:59.730Z,3.08
2023-04-21T16:50:29.649Z,2.53
2023-04-21T16:52:57.846Z,2.88
2023-04-21T16:55:26.095Z,3.28
2023-04-21T16:57:54.259Z,3.10
2023-04-21T17:00:22.532Z,2.80
2023-04-21T17:02:50.892Z,2.92
2023-04-21T17:05:19.260Z,3.00
2023-04-21T17:07:48.776Z,3.53
2023-04-21T17:10:16.933Z,3.20
2023-04-21T17:12:45.107Z,3.88
2023-04-21T17:15:13.426Z,3.92
2023-04-21T17:17:43.357Z,5.32
2023-04-21T17:20:13.303Z,4.80
2023-04-21T17:22:41.980Z,5.03
2023-04-21T17:25:12.616Z,4.13
2023-04-21T17:27:41.694Z,3.75
2023-04-21T17:30:10.975Z,3.58
2023-04-21T17:32:40.551Z,3.60
2023-04-21T17:35:09.486Z,3.97
2023-04-21T17:37:37.805Z,2.97
2023-04-21T17:40:07.832Z,3.40
2023-04-21T17:42:37.353Z,3.42
2023-04-21T17:45:07.552Z,3.38
2023-04-21T17:47:35.978Z,3.88
2023-04-21T17:50:04.590Z,3.95
2023-04-21T17:52:33.001Z,3.03
2023-04-21T17:55:01.236Z,3.22
2023-04-21T17:57:29.419Z,4.13
2023-04-21T17:59:58.990Z,4.50
2023-04-21T18:02:27.255Z,6.13
2023-04-21T18:04:55.508Z,5.13
2023-04-21T18:07:23.771Z,5.13
2023-04-21T18:09:52.419Z,5.03
2023-04-21T18:12:21.707Z,4.75
2023-04-21T18:14:50.061Z,5.68
2023-04-21T18:17:19.687Z,7.28
2023-04-21T18:19:47.909Z,7.47
2023-04-21T18:22:16.295Z,6.07
2023-04-21T18:24:44.774Z,5.93
2023-04-21T18:27:13.923Z,6.53
2023-04-21T18:29:42.072Z,13.25
2023-04-21T18:32:10.307Z,11.32
2023-04-21T18:34:41.471Z,7.80
2023-04-21T18:37:09.748Z,7.82
2023-04-21T18:39:37.928Z,8.43
2023-04-21T18:42:06.202Z,9.23
2023-04-21T18:44:34.477Z,8.77
2023-04-21T18:47:03.029Z,8.38
2023-04-21T18:49:31.224Z,10.32
2023-04-21T18:52:00.821Z,14.48
2023-04-21T18:54:29.004Z,13.98
2023-04-21T18:56:57.688Z,12.93
2023-04-21T18:59:27.187Z,11.52
2023-04-21T19:01:55.913Z,12.57
2023-04-21T19:04:24.255Z,13.18
2023-04-21T19:06:55.132Z,13.25
2023-04-21T19:09:24.769Z,13.48
2023-04-21T19:11:52.926Z,12.55
2023-04-21T19:14:21.294Z,13.88
2023-04-21T19:16:53.146Z,14.55
2023-04-21T19:19:22.083Z,14.82
2023-04-21T19:21:50.342Z,15.13
2023-04-21T19:24:18.506Z,14.60
2023-04-21T19:26:48.087Z,13.77
2023-04-21T19:29:16.576Z,12.73
2023-04-21T19:31:44.783Z,11.82
2023-04-21T19:34:13.348Z,12.15
2023-04-21T19:36:42.019Z,12.23
2023-04-21T19:39:10.320Z,11.93
2023-04-21T19:41:38.726Z,10.80
2023-04-21T19:44:11.176Z,12.10
2023-04-21T19:46:45.180Z,11.10
2023-04-21T19:49:14.297Z,12.15
2023-04-21T19:51:42.572Z,11.85
2023-04-21T19:54:12.298Z,12.40
2023-04-21T19:56:41.539Z,11.98
2023-04-21T19:59:11.791Z,11.73
2023-04-21T20:01:40.236Z,11.77
2023-04-21T20:04:11.597Z,11.73
2023-04-21T20:06:41.591Z,12.20
2023-04-21T20:09:10.476Z,12.45
2023-04-21T20:11:42.103Z,12.50
2023-04-21T20:14:12.473Z,11.70
2023-04-21T20:16:46.183Z,10.48
2023-04-21T20:19:17.352Z,11.35
2023-04-21T20:21:49.987Z,10.05
2023-04-21T20:24:21.295Z,9.75
2023-04-21T20:26:49.724Z,9.00
2023-04-21T20:29:21.263Z,9.75
2023-04-21T20:31:52.681Z,9.40
2023-04-21T20:34:26.253Z,8.95
2023-04-21T20:36:58.137Z,9.10
2023-04-21T20:39:30.993Z,8.68
2023-04-21T20:42:11.992Z,8.18
2023-04-21T20:44:42.921Z,8.82
2023-04-21T20:47:12.073Z,9.48
2023-04-21T20:49:41.108Z,8.27
2023-04-21T20:52:10.357Z,9.32
2023-04-21T20:54:44.666Z,10.32
2023-04-21T20:57:13.223Z,11.23
2023-04-21T20:59:45.946Z,11.02
2023-04-21T21:02:14.465Z,9.35
2023-04-21T21:04:43.219Z,8.45
2023-04-21T21:07:13.810Z,8.02
2023-04-21T21:09:42.270Z,8.90
2023-04-21T21:12:10.486Z,7.90
2023-04-21T21:14:38.801Z,7.22
2023-04-21T21:17:08.647Z,7.68
2023-04-21T21:19:37.137Z,8.40
2023-04-21T21:22:05.544Z,6.97
2023-04-21T21:24:34.058Z,7.20
2023-04-21T21:27:06.345Z,8.30
2023-04-21T21:29:34.987Z,8.18
2023-04-21T21:32:03.507Z,8.20
2023-04-21T21:34:33.073Z,8.73
2023-04-21T21:37:01.336Z,8.52
2023-04-21T21:39:31.978Z,7.80
2023-04-21T21:42:00.193Z,8.63
2023-04-21T21:44:28.315Z,8.07
2023-04-21T21:46:56.464Z,7.85
2023-04-21T21:49:24.625Z,8.10
2023-04-21T21:51:54.674Z,9.50
2023-04-21T21:54:22.848Z,11.48
2023-04-21T21:56:51.042Z,12.15
2023-04-21T21:59:19.230Z,9.88
2023-04-21T22:01:47.838Z,10.52
2023-04-21T22:04:16.093Z,11.30
2023-04-21T22:06:45.311Z,12.32
2023-04-21T22:09:14.839Z,12.15
2023-04-21T22:11:43.003Z,12.95
2023-04-21T22:14:21.865Z,12.60
2023-04-21T22:16:52.583Z,12.30
2023-04-21T22:19:21.098Z,11.93
2023-04-21T22:21:49.476Z,11.27
2023-04-21T22:24:19.597Z,11.02
2023-04-21T22:26:48.889Z,10.38
2023-04-21T22:29:17.113Z,10.63
2023-04-21T22:31:45.344Z,10.48
2023-04-21T22:34:15.016Z,10.23
2023-04-21T22:36:43.300Z,9.38
2023-04-21T22:39:11.677Z,10.60
2023-04-21T22:41:41.255Z,9.85
2023-04-21T22:44:09.519Z,9.70
2023-04-21T22:46:37.998Z,8.63
2023-04-21T22:49:06.689Z,9.32
2023-04-21T22:51:35.085Z,9.43
2023-04-21T22:54:03.331Z,9.00
2023-04-21T22:56:32.012Z,7.72
2023-04-21T22:59:01.559Z,7.65
2023-04-21T23:01:29.914Z,7.55
2023-04-21T23:03:58.178Z,7.43
2023-04-21T23:06:26.683Z,7.43
2023-04-21T23:08:54.824Z,7.10
2023-04-21T23:11:22.991Z,6.60
2023-04-21T23:13:51.282Z,6.72
2023-04-21T23:16:20.909Z,6.60
2023-04-21T23:18:49.376Z,6.85
2023-04-21T23:21:17.585Z,6.07
2023-04-21T23:23:45.784Z,6.70
2023-04-21T23:26:13.966Z,7.38
2023-04-21T23:28:42.150Z,6.57
2023-04-21T23:31:10.401Z,6.18
2023-04-21T23:33:39.944Z,6.60
2023-04-21T23:36:08.491Z,6.72
2023-04-21T23:38:36.658Z,6.55
2023-04-21T23:41:04.895Z,6.53
2023-04-21T23:43:34.570Z,6.93
2023-04-21T23:46:02.806Z,6.45
2023-04-21T23:48:31.046Z,6.57
2023-04-21T23:51:00.682Z,6.55
2023-04-21T23:53:28.910Z,6.22
2023-04-21T23:55:57.507Z,7.30
2023-04-21T23:58:25.826Z,6.38
